sensor_id;sensor_type;location;lat;lon;timestamp;P1;durP1;ratioP1;P2;durP2;ratioP2
73642;SDS011;61938;48.652;9.292;2023-06-04T00:01:57;15.00;;;9.00;;
73642;SDS011;61938;48.652;9.292;2023-06-04T00:04:22;14.23;;;8.55;;
73642;SDS011;61938;48.652;9.292;2023-06-04T00:06:48;22.55;;;8.55;;
73642;SDS011;61938;48.652;9.292;2023-06-04T00:09:14;17.35;;;8.77;;
73642;SDS011;61938;48.652;9.292;2023-06-04T00:11:39;16.63;;;8.55;;
73642;SDS011;61938;48.652;9.292;2023-06-04T00:14:05;17.35;;;8.93;;
73642;SDS011;61938;48.652;9.292;2023-06-04T00:16:30;21.10;;;9.30;;
73642;SDS011;61938;48.652;9.292;2023-06-04T00:18:56;17.83;;;8.90;;
73642;SDS011;61938;48.652;9.292;2023-06-04T00:21:22;23.70;;;9.73;;
73642;SDS011;61938;48.652;9.292;2023-06-04T00:23:47;13.43;;;8.57;;
73642;SDS011;61938;48.652;9.292;2023-06-04T00:26:13;15.82;;;8.00;;
73642;SDS011;61938;48.652;9.292;2023-06-04T00:28:38;12.18;;;8.38;;
73642;SDS011;61938;48.652;9.292;2023-06-04T00:31:04;14.85;;;8.40;;
73642;SDS011;61938;48.652;9.292;2023-06-04T00:33:31;15.88;;;8.63;;
73642;SDS011;61938;48.652;9.292;2023-06-04T00:35:56;21.77;;;9.10;;
73642;SDS011;61938;48.652;9.292;2023-06-04T00:38:22;12.85;;;8.48;;
73642;SDS011;61938;48.652;9.292;2023-06-04T00:40:48;13.07;;;8.52;;
73642;SDS011;61938;48.652;9.292;2023-06-04T00:43:13;14.35;;;8.15;;
73642;SDS011;61938;48.652;9.292;2023-06-04T00:45:39;16.35;;;9.25;;
73642;SDS011;61938;48.652;9.292;2023-06-04T00:48:07;12.90;;;8.27;;
73642;SDS011;61938;48.652;9.292;2023-06-04T00:50:32;18.25;;;8.40;;
73642;SDS011;61938;48.652;9.292;2023-06-04T00:52:58;19.13;;;9.18;;
73642;SDS011;61938;48.652;9.292;2023-06-04T00:55:24;16.45;;;8.68;;
73642;SDS011;61938;48.652;9.292;2023-06-04T00:57:50;15.95;;;9.40;;
73642;SDS011;61938;48.652;9.292;2023-06-04T01:00:15;15.82;;;9.30;;
73642;SDS011;61938;48.652;9.292;2023-06-04T01:02:41;19.20;;;9.43;;
73642;SDS011;61938;48.652;9.292;2023-06-04T01:05:14;19.73;;;9.35;;
73642;SDS011;61938;48.652;9.292;2023-06-04T01:07:49;22.27;;;8.70;;
73642;SDS011;61938;48.652;9.292;2023-06-04T01:10:15;15.02;;;7.82;;
73642;SDS011;61938;48.652;9.292;2023-06-04T01:12:42;18.15;;;9.10;;
73642;SDS011;61938;48.652;9.292;2023-06-04T01:15:08;14.55;;;7.70;;
73642;SDS011;61938;48.652;9.292;2023-06-04T01:17:41;16.95;;;7.80;;
73642;SDS011;61938;48.652;9.292;2023-06-04T01:23:19;13.73;;;7.13;;
73642;SDS011;61938;48.652;9.292;2023-06-04T01:25:52;15.63;;;8.23;;
73642;SDS011;61938;48.652;9.292;2023-06-04T01:28:18;17.08;;;8.52;;
73642;SDS011;61938;48.652;9.292;2023-06-04T01:30:46;14.02;;;8.25;;
73642;SDS011;61938;48.652;9.292;2023-06-04T01:33:13;13.55;;;7.68;;
73642;SDS011;61938;48.652;9.292;2023-06-04T01:35:40;16.67;;;8.40;;
73642;SDS011;61938;48.652;9.292;2023-06-04T01:38:06;16.65;;;8.15;;
73642;SDS011;61938;48.652;9.292;2023-06-04T01:40:31;14.73;;;8.27;;
73642;SDS011;61938;48.652;9.292;2023-06-04T01:42:57;15.77;;;7.85;;
73642;SDS011;61938;48.652;9.292;2023-06-04T01:45:23;13.60;;;7.97;;
73642;SDS011;61938;48.652;9.292;2023-06-04T01:47:50;20.35;;;8.57;;
73642;SDS011;61938;48.652;9.292;2023-06-04T01:50:16;17.77;;;8.25;;
73642;SDS011;61938;48.652;9.292;2023-06-04T01:52:42;15.80;;;7.50;;
73642;SDS011;61938;48.652;9.292;2023-06-04T01:55:09;13.32;;;7.90;;
73642;SDS011;61938;48.652;9.292;2023-06-04T01:57:37;12.55;;;7.93;;
73642;SDS011;61938;48.652;9.292;2023-06-04T02:00:03;14.57;;;7.55;;
73642;SDS011;61938;48.652;9.292;2023-06-04T02:02:33;14.70;;;7.68;;
73642;SDS011;61938;48.652;9.292;2023-06-04T02:04:58;17.13;;;8.27;;
73642;SDS011;61938;48.652;9.292;2023-06-04T02:07:23;12.55;;;7.70;;
73642;SDS011;61938;48.652;9.292;2023-06-04T02:09:50;15.70;;;7.32;;
73642;SDS011;61938;48.652;9.292;2023-06-04T02:12:16;11.77;;;7.40;;
73642;SDS011;61938;48.652;9.292;2023-06-04T02:14:41;13.50;;;7.20;;
73642;SDS011;61938;48.652;9.292;2023-06-04T02:17:08;14.60;;;7.63;;
73642;SDS011;61938;48.652;9.292;2023-06-04T02:19:43;17.70;;;7.63;;
73642;SDS011;61938;48.652;9.292;2023-06-04T02:22:12;14.70;;;7.60;;
73642;SDS011;61938;48.652;9.292;2023-06-04T02:24:38;13.65;;;7.30;;
73642;SDS011;61938;48.652;9.292;2023-06-04T02:27:07;11.50;;;6.00;;
73642;SDS011;61938;48.652;9.292;2023-06-04T02:29:33;13.18;;;6.75;;
73642;SDS011;61938;48.652;9.292;2023-06-04T02:31:58;17.42;;;6.70;;
73642;SDS011;61938;48.652;9.292;2023-06-04T02:34:23;12.68;;;5.78;;
73642;SDS011;61938;48.652;9.292;2023-06-04T02:36:50;10.90;;;5.15;;
73642;SDS011;61938;48.652;9.292;2023-06-04T02:39:16;11.07;;;6.05;;
73642;SDS011;61938;48.652;9.292;2023-06-04T02:41:42;11.00;;;5.85;;
73642;SDS011;61938;48.652;9.292;2023-06-04T02:44:07;16.35;;;5.70;;
73642;SDS011;61938;48.652;9.292;2023-06-04T02:46:33;10.38;;;5.50;;
73642;SDS011;61938;48.652;9.292;2023-06-04T02:48:58;10.25;;;6.03;;
73642;SDS011;61938;48.652;9.292;2023-06-04T02:51:24;11.80;;;6.13;;
73642;SDS011;61938;48.652;9.292;2023-06-04T02:53:50;8.02;;;5.43;;
73642;SDS011;61938;48.652;9.292;2023-06-04T02:56:15;12.00;;;6.35;;
73642;SDS011;61938;48.652;9.292;2023-06-04T02:58:50;10.38;;;5.82;;
73642;SDS011;61938;48.652;9.292;2023-06-04T03:01:20;13.13;;;5.93;;
73642;SDS011;61938;48.652;9.292;2023-06-04T03:03:51;12.57;;;5.55;;
73642;SDS011;61938;48.652;9.292;2023-06-04T03:06:21;13.80;;;6.13;;
73642;SDS011;61938;48.652;9.292;2023-06-04T03:08:47;13.27;;;5.20;;
73642;SDS011;61938;48.652;9.292;2023-06-04T03:11:13;8.55;;;5.07;;
73642;SDS011;61938;48.652;9.292;2023-06-04T03:13:39;10.10;;;5.78;;
73642;SDS011;61938;48.652;9.292;2023-06-04T03:16:05;9.20;;;5.03;;
73642;SDS011;61938;48.652;9.292;2023-06-04T03:18:40;10.95;;;5.03;;
73642;SDS011;61938;48.652;9.292;2023-06-04T03:21:06;12.15;;;5.40;;
73642;SDS011;61938;48.652;9.292;2023-06-04T03:23:33;7.97;;;5.03;;
73642;SDS011;61938;48.652;9.292;2023-06-04T03:26:00;9.65;;;4.95;;
73642;SDS011;61938;48.652;9.292;2023-06-04T03:28:26;10.23;;;5.15;;
73642;SDS011;61938;48.652;9.292;2023-06-04T03:30:52;7.40;;;4.60;;
73642;SDS011;61938;48.652;9.292;2023-06-04T03:33:18;9.95;;;5.07;;
73642;SDS011;61938;48.652;9.292;2023-06-04T03:35:43;8.45;;;4.38;;
73642;SDS011;61938;48.652;9.292;2023-06-04T03:38:09;7.93;;;4.60;;
73642;SDS011;61938;48.652;9.292;2023-06-04T03:40:34;10.60;;;5.35;;
73642;SDS011;61938;48.652;9.292;2023-06-04T03:43:00;9.23;;;5.07;;
73642;SDS011;61938;48.652;9.292;2023-06-04T03:45:26;10.43;;;5.45;;
73642;SDS011;61938;48.652;9.292;2023-06-04T03:47:51;9.95;;;5.68;;
73642;SDS011;61938;48.652;9.292;2023-06-04T03:50:17;13.68;;;5.90;;
73642;SDS011;61938;48.652;9.292;2023-06-04T03:52:43;9.30;;;5.30;;
73642;SDS011;61938;48.652;9.292;2023-06-04T03:55:09;10.25;;;4.95;;
73642;SDS011;61938;48.652;9.292;2023-06-04T03:57:36;10.88;;;4.93;;
73642;SDS011;61938;48.652;9.292;2023-06-04T04:00:03;11.00;;;5.22;;
73642;SDS011;61938;48.652;9.292;2023-06-04T04:02:30;7.35;;;4.53;;
73642;SDS011;61938;48.652;9.292;2023-06-04T04:04:56;8.60;;;5.07;;
73642;SDS011;61938;48.652;9.292;2023-06-04T04:07:22;8.80;;;5.28;;
73642;SDS011;61938;48.652;9.292;2023-06-04T04:09:47;7.93;;;4.70;;
73642;SDS011;61938;48.652;9.292;2023-06-04T04:12:13;9.43;;;5.00;;
73642;SDS011;61938;48.652;9.292;2023-06-04T04:14:38;9.88;;;5.03;;
73642;SDS011;61938;48.652;9.292;2023-06-04T04:17:04;8.30;;;5.18;;
73642;SDS011;61938;48.652;9.292;2023-06-04T04:19:30;11.77;;;5.15;;
73642;SDS011;61938;48.652;9.292;2023-06-04T04:21:55;10.00;;;5.50;;
73642;SDS011;61938;48.652;9.292;2023-06-04T04:24:22;12.90;;;5.72;;
73642;SDS011;61938;48.652;9.292;2023-06-04T04:26:51;9.20;;;4.75;;
73642;SDS011;61938;48.652;9.292;2023-06-04T04:29:18;8.13;;;5.10;;
73642;SDS011;61938;48.652;9.292;2023-06-04T04:31:49;7.15;;;4.40;;
73642;SDS011;61938;48.652;9.292;2023-06-04T04:34:18;9.30;;;3.80;;
73642;SDS011;61938;48.652;9.292;2023-06-04T04:36:46;11.88;;;4.85;;
73642;SDS011;61938;48.652;9.292;2023-06-04T04:39:18;8.30;;;4.50;;
73642;SDS011;61938;48.652;9.292;2023-06-04T04:41:50;8.98;;;4.60;;
73642;SDS011;61938;48.652;9.292;2023-06-04T04:44:16;6.90;;;4.45;;
73642;SDS011;61938;48.652;9.292;2023-06-04T04:46:41;6.47;;;4.07;;
73642;SDS011;61938;48.652;9.292;2023-06-04T04:49:07;11.90;;;4.28;;
73642;SDS011;61938;48.652;9.292;2023-06-04T04:51:32;13.05;;;5.20;;
73642;SDS011;61938;48.652;9.292;2023-06-04T04:53:58;13.05;;;4.82;;
73642;SDS011;61938;48.652;9.292;2023-06-04T04:56:27;7.28;;;4.03;;
73642;SDS011;61938;48.652;9.292;2023-06-04T04:58:53;9.15;;;4.40;;
73642;SDS011;61938;48.652;9.292;2023-06-04T05:01:19;6.38;;;3.90;;
73642;SDS011;61938;48.652;9.292;2023-06-04T05:03:45;9.90;;;4.00;;
73642;SDS011;61938;48.652;9.292;2023-06-04T05:06:11;12.85;;;4.20;;
73642;SDS011;61938;48.652;9.292;2023-06-04T05:08:37;11.25;;;4.18;;
73642;SDS011;61938;48.652;9.292;2023-06-04T05:11:02;9.38;;;3.90;;
73642;SDS011;61938;48.652;9.292;2023-06-04T05:13:28;7.65;;;3.63;;
73642;SDS011;61938;48.652;9.292;2023-06-04T05:15:54;6.28;;;3.70;;
73642;SDS011;61938;48.652;9.292;2023-06-04T05:18:20;9.90;;;4.38;;
73642;SDS011;61938;48.652;9.292;2023-06-04T05:20:46;8.43;;;4.45;;
73642;SDS011;61938;48.652;9.292;2023-06-04T05:23:11;5.18;;;3.40;;
73642;SDS011;61938;48.652;9.292;2023-06-04T05:25:37;7.43;;;3.72;;
73642;SDS011;61938;48.652;9.292;2023-06-04T05:28:03;6.35;;;3.63;;
73642;SDS011;61938;48.652;9.292;2023-06-04T05:30:30;9.35;;;3.70;;
73642;SDS011;61938;48.652;9.292;2023-06-04T05:32:56;10.50;;;3.33;;
73642;SDS011;61938;48.652;9.292;2023-06-04T05:35:22;7.00;;;3.67;;
73642;SDS011;61938;48.652;9.292;2023-06-04T05:37:47;7.68;;;3.22;;
73642;SDS011;61938;48.652;9.292;2023-06-04T05:40:18;7.57;;;3.35;;
73642;SDS011;61938;48.652;9.292;2023-06-04T05:42:46;8.63;;;4.30;;
73642;SDS011;61938;48.652;9.292;2023-06-04T05:45:11;6.85;;;3.58;;
73642;SDS011;61938;48.652;9.292;2023-06-04T05:47:37;7.63;;;3.17;;
73642;SDS011;61938;48.652;9.292;2023-06-04T05:50:03;6.53;;;3.45;;
73642;SDS011;61938;48.652;9.292;2023-06-04T05:52:28;6.78;;;3.25;;
73642;SDS011;61938;48.652;9.292;2023-06-04T05:54:54;8.63;;;3.58;;
73642;SDS011;61938;48.652;9.292;2023-06-04T05:57:20;5.55;;;3.20;;
73642;SDS011;61938;48.652;9.292;2023-06-04T05:59:46;10.95;;;3.53;;
73642;SDS011;61938;48.652;9.292;2023-06-04T06:02:11;6.20;;;3.08;;
73642;SDS011;61938;48.652;9.292;2023-06-04T06:04:38;13.13;;;3.85;;
73642;SDS011;61938;48.652;9.292;2023-06-04T06:07:03;7.18;;;3.60;;
73642;SDS011;61938;48.652;9.292;2023-06-04T06:09:29;11.85;;;3.70;;
73642;SDS011;61938;48.652;9.292;2023-06-04T06:11:55;8.27;;;3.50;;
73642;SDS011;61938;48.652;9.292;2023-06-04T06:14:20;7.55;;;3.85;;
73642;SDS011;61938;48.652;9.292;2023-06-04T06:16:48;7.00;;;3.47;;
73642;SDS011;61938;48.652;9.292;2023-06-04T06:19:13;6.40;;;3.63;;
73642;SDS011;61938;48.652;9.292;2023-06-04T06:21:39;9.43;;;3.25;;
73642;SDS011;61938;48.652;9.292;2023-06-04T06:24:05;4.72;;;3.13;;
73642;SDS011;61938;48.652;9.292;2023-06-04T06:26:30;9.23;;;3.53;;
73642;SDS011;61938;48.652;9.292;2023-06-04T06:28:56;8.98;;;3.35;;
73642;SDS011;61938;48.652;9.292;2023-06-04T06:31:22;7.68;;;2.97;;
73642;SDS011;61938;48.652;9.292;2023-06-04T06:33:47;11.15;;;3.70;;
73642;SDS011;61938;48.652;9.292;2023-06-04T06:36:13;16.33;;;3.65;;
73642;SDS011;61938;48.652;9.292;2023-06-04T06:38:39;9.52;;;3.35;;
73642;SDS011;61938;48.652;9.292;2023-06-04T06:41:05;6.00;;;3.38;;
73642;SDS011;61938;48.652;9.292;2023-06-04T06:43:31;6.38;;;3.30;;
73642;SDS011;61938;48.652;9.292;2023-06-04T06:45:57;13.75;;;3.40;;
73642;SDS011;61938;48.652;9.292;2023-06-04T06:48:22;7.70;;;3.72;;
73642;SDS011;61938;48.652;9.292;2023-06-04T06:50:48;4.72;;;2.70;;
73642;SDS011;61938;48.652;9.292;2023-06-04T06:53:13;4.75;;;3.10;;
73642;SDS011;61938;48.652;9.292;2023-06-04T06:55:39;9.02;;;2.92;;
73642;SDS011;61938;48.652;9.292;2023-06-04T06:58:05;5.78;;;2.90;;
73642;SDS011;61938;48.652;9.292;2023-06-04T07:00:30;6.32;;;3.15;;
73642;SDS011;61938;48.652;9.292;2023-06-04T07:02:56;5.35;;;2.97;;
73642;SDS011;61938;48.652;9.292;2023-06-04T07:05:21;7.63;;;2.95;;
73642;SDS011;61938;48.652;9.292;2023-06-04T07:07:47;7.30;;;3.13;;
73642;SDS011;61938;48.652;9.292;2023-06-04T07:10:12;7.45;;;3.30;;
73642;SDS011;61938;48.652;9.292;2023-06-04T07:12:38;6.20;;;3.17;;
73642;SDS011;61938;48.652;9.292;2023-06-04T07:15:05;8.55;;;3.20;;
73642;SDS011;61938;48.652;9.292;2023-06-04T07:17:31;7.03;;;3.60;;
73642;SDS011;61938;48.652;9.292;2023-06-04T07:19:57;9.88;;;3.28;;
73642;SDS011;61938;48.652;9.292;2023-06-04T07:22:22;8.15;;;3.72;;
73642;SDS011;61938;48.652;9.292;2023-06-04T07:24:48;11.07;;;2.75;;
73642;SDS011;61938;48.652;9.292;2023-06-04T07:27:14;11.95;;;2.65;;
73642;SDS011;61938;48.652;9.292;2023-06-04T07:29:40;6.88;;;3.13;;
73642;SDS011;61938;48.652;9.292;2023-06-04T07:32:07;9.57;;;2.92;;
73642;SDS011;61938;48.652;9.292;2023-06-04T07:34:33;7.13;;;3.10;;
73642;SDS011;61938;48.652;9.292;2023-06-04T07:36:58;5.90;;;3.10;;
73642;SDS011;61938;48.652;9.292;2023-06-04T07:39:24;11.07;;;2.88;;
73642;SDS011;61938;48.652;9.292;2023-06-04T07:41:49;4.00;;;2.90;;
73642;SDS011;61938;48.652;9.292;2023-06-04T07:44:15;7.55;;;3.70;;
73642;SDS011;61938;48.652;9.292;2023-06-04T07:46:41;7.05;;;2.78;;
73642;SDS011;61938;48.652;9.292;2023-06-04T07:49:06;5.53;;;2.78;;
73642;SDS011;61938;48.652;9.292;2023-06-04T07:51:33;8.07;;;3.60;;
73642;SDS011;61938;48.652;9.292;2023-06-04T07:53:58;6.38;;;3.10;;
73642;SDS011;61938;48.652;9.292;2023-06-04T07:56:23;8.00;;;3.50;;
73642;SDS011;61938;48.652;9.292;2023-06-04T07:58:50;5.95;;;3.10;;
73642;SDS011;61938;48.652;9.292;2023-06-04T08:01:16;9.00;;;3.75;;
73642;SDS011;61938;48.652;9.292;2023-06-04T08:03:41;10.02;;;3.30;;
73642;SDS011;61938;48.652;9.292;2023-06-04T08:06:07;10.95;;;3.78;;
73642;SDS011;61938;48.652;9.292;2023-06-04T08:08:32;5.35;;;3.10;;
73642;SDS011;61938;48.652;9.292;2023-06-04T08:11:00;7.28;;;3.03;;
73642;SDS011;61938;48.652;9.292;2023-06-04T08:13:26;9.38;;;3.67;;
73642;SDS011;61938;48.652;9.292;2023-06-04T08:15:51;6.60;;;2.88;;
73642;SDS011;61938;48.652;9.292;2023-06-04T08:18:17;6.70;;;3.00;;
73642;SDS011;61938;48.652;9.292;2023-06-04T08:20:42;6.70;;;3.55;;
73642;SDS011;61938;48.652;9.292;2023-06-04T08:23:08;5.28;;;3.30;;
73642;SDS011;61938;48.652;9.292;2023-06-04T08:25:33;6.68;;;3.35;;
73642;SDS011;61938;48.652;9.292;2023-06-04T08:27:59;6.55;;;3.28;;
73642;SDS011;61938;48.652;9.292;2023-06-04T08:30:25;5.28;;;3.60;;
73642;SDS011;61938;48.652;9.292;2023-06-04T08:32:52;11.15;;;4.22;;
73642;SDS011;61938;48.652;9.292;2023-06-04T08:35:18;5.20;;;3.28;;
73642;SDS011;61938;48.652;9.292;2023-06-04T08:37:43;4.90;;;3.10;;
73642;SDS011;61938;48.652;9.292;2023-06-04T08:40:09;9.32;;;3.13;;
73642;SDS011;61938;48.652;9.292;2023-06-04T08:42:38;7.15;;;3.08;;
73642;SDS011;61938;48.652;9.292;2023-06-04T08:45:10;9.63;;;3.60;;
73642;SDS011;61938;48.652;9.292;2023-06-04T08:47:37;6.15;;;3.10;;
73642;SDS011;61938;48.652;9.292;2023-06-04T08:50:09;12.05;;;3.30;;
73642;SDS011;61938;48.652;9.292;2023-06-04T08:52:36;5.70;;;3.65;;
73642;SDS011;61938;48.652;9.292;2023-06-04T08:55:03;7.07;;;3.03;;
73642;SDS011;61938;48.652;9.292;2023-06-04T08:57:30;6.97;;;3.38;;
73642;SDS011;61938;48.652;9.292;2023-06-04T08:59:56;9.00;;;2.90;;
73642;SDS011;61938;48.652;9.292;2023-06-04T09:02:21;9.25;;;3.08;;
73642;SDS011;61938;48.652;9.292;2023-06-04T09:04:48;8.75;;;3.50;;
73642;SDS011;61938;48.652;9.292;2023-06-04T09:07:15;6.88;;;3.10;;
73642;SDS011;61938;48.652;9.292;2023-06-04T09:09:42;7.22;;;2.85;;
73642;SDS011;61938;48.652;9.292;2023-06-04T09:12:11;6.68;;;3.63;;
73642;SDS011;61938;48.652;9.292;2023-06-04T09:14:41;8.23;;;3.50;;
73642;SDS011;61938;48.652;9.292;2023-06-04T09:17:06;15.38;;;3.60;;
73642;SDS011;61938;48.652;9.292;2023-06-04T09:19:32;7.43;;;3.65;;
73642;SDS011;61938;48.652;9.292;2023-06-04T09:21:58;7.25;;;3.70;;
73642;SDS011;61938;48.652;9.292;2023-06-04T09:24:42;8.60;;;3.28;;
73642;SDS011;61938;48.652;9.292;2023-06-04T09:27:18;8.07;;;3.50;;
73642;SDS011;61938;48.652;9.292;2023-06-04T09:29:48;8.40;;;3.40;;
73642;SDS011;61938;48.652;9.292;2023-06-04T09:32:20;8.15;;;3.47;;
73642;SDS011;61938;48.652;9.292;2023-06-04T09:34:46;10.40;;;3.80;;
73642;SDS011;61938;48.652;9.292;2023-06-04T09:37:15;8.10;;;3.60;;
73642;SDS011;61938;48.652;9.292;2023-06-04T09:39:42;8.88;;;3.90;;
73642;SDS011;61938;48.652;9.292;2023-06-04T09:42:08;9.43;;;3.75;;
73642;SDS011;61938;48.652;9.292;2023-06-04T09:44:42;5.70;;;3.47;;
73642;SDS011;61938;48.652;9.292;2023-06-04T09:47:10;13.15;;;3.53;;
73642;SDS011;61938;48.652;9.292;2023-06-04T09:49:42;6.68;;;3.17;;
73642;SDS011;61938;48.652;9.292;2023-06-04T09:52:09;6.82;;;3.40;;
73642;SDS011;61938;48.652;9.292;2023-06-04T09:54:41;8.50;;;3.63;;
73642;SDS011;61938;48.652;9.292;2023-06-04T09:57:17;11.50;;;3.42;;
73642;SDS011;61938;48.652;9.292;2023-06-04T09:59:44;10.10;;;3.60;;
73642;SDS011;61938;48.652;9.292;2023-06-04T10:02:13;6.30;;;3.28;;
73642;SDS011;61938;48.652;9.292;2023-06-04T10:04:48;6.78;;;3.45;;
73642;SDS011;61938;48.652;9.292;2023-06-04T10:07:24;9.68;;;4.07;;
73642;SDS011;61938;48.652;9.292;2023-06-04T10:09:50;8.23;;;3.97;;
73642;SDS011;61938;48.652;9.292;2023-06-04T10:12:20;6.60;;;3.75;;
73642;SDS011;61938;48.652;9.292;2023-06-04T10:14:57;8.93;;;4.10;;
73642;SDS011;61938;48.652;9.292;2023-06-04T10:17:26;9.85;;;3.88;;
73642;SDS011;61938;48.652;9.292;2023-06-04T10:19:54;5.78;;;3.65;;
73642;SDS011;61938;48.652;9.292;2023-06-04T10:22:21;9.55;;;4.25;;
73642;SDS011;61938;48.652;9.292;2023-06-04T10:24:46;13.70;;;4.18;;
73642;SDS011;61938;48.652;9.292;2023-06-04T10:27:12;9.90;;;4.18;;
73642;SDS011;61938;48.652;9.292;2023-06-04T10:29:38;8.13;;;4.13;;
73642;SDS011;61938;48.652;9.292;2023-06-04T10:32:04;7.38;;;4.78;;
73642;SDS011;61938;48.652;9.292;2023-06-04T10:34:30;6.95;;;4.50;;
73642;SDS011;61938;48.652;9.292;2023-06-04T10:36:57;8.90;;;4.18;;
73642;SDS011;61938;48.652;9.292;2023-06-04T10:39:29;8.48;;;4.20;;
73642;SDS011;61938;48.652;9.292;2023-06-04T10:42:01;7.50;;;4.18;;
73642;SDS011;61938;48.652;9.292;2023-06-04T10:44:28;11.02;;;4.43;;
73642;SDS011;61938;48.652;9.292;2023-06-04T10:46:55;13.35;;;4.82;;
73642;SDS011;61938;48.652;9.292;2023-06-04T10:49:28;10.32;;;4.93;;
73642;SDS011;61938;48.652;9.292;2023-06-04T10:51:54;7.50;;;4.70;;
73642;SDS011;61938;48.652;9.292;2023-06-04T10:54:24;7.13;;;4.75;;
73642;SDS011;61938;48.652;9.292;2023-06-04T10:56:51;10.20;;;5.20;;
73642;SDS011;61938;48.652;9.292;2023-06-04T10:59:18;7.30;;;4.68;;
73642;SDS011;61938;48.652;9.292;2023-06-04T11:01:44;9.73;;;4.97;;
73642;SDS011;61938;48.652;9.292;2023-06-04T11:04:23;10.20;;;4.85;;
73642;SDS011;61938;48.652;9.292;2023-06-04T11:07:03;12.35;;;5.25;;
73642;SDS011;61938;48.652;9.292;2023-06-04T11:09:36;7.82;;;5.18;;
73642;SDS011;61938;48.652;9.292;2023-06-04T11:12:14;10.25;;;5.55;;
73642;SDS011;61938;48.652;9.292;2023-06-04T11:14:40;7.90;;;4.35;;
73642;SDS011;61938;48.652;9.292;2023-06-04T11:17:09;7.40;;;4.90;;
73642;SDS011;61938;48.652;9.292;2023-06-04T11:19:36;7.15;;;4.00;;
73642;SDS011;61938;48.652;9.292;2023-06-04T11:22:02;7.22;;;4.75;;
73642;SDS011;61938;48.652;9.292;2023-06-04T11:24:29;11.80;;;5.18;;
73642;SDS011;61938;48.652;9.292;2023-06-04T11:26:56;12.38;;;4.75;;
73642;SDS011;61938;48.652;9.292;2023-06-04T11:29:24;7.40;;;4.57;;
73642;SDS011;61938;48.652;9.292;2023-06-04T11:31:50;8.68;;;4.75;;
73642;SDS011;61938;48.652;9.292;2023-06-04T11:34:22;7.38;;;4.97;;
73642;SDS011;61938;48.652;9.292;2023-06-04T11:36:48;4.68;;;3.92;;
73642;SDS011;61938;48.652;9.292;2023-06-04T11:39:20;7.55;;;4.57;;
73642;SDS011;61938;48.652;9.292;2023-06-04T11:41:46;9.07;;;4.75;;
73642;SDS011;61938;48.652;9.292;2023-06-04T11:44:13;10.55;;;4.20;;
73642;SDS011;61938;48.652;9.292;2023-06-04T11:46:40;6.40;;;4.10;;
73642;SDS011;61938;48.652;9.292;2023-06-04T11:49:08;8.02;;;4.30;;
73642;SDS011;61938;48.652;9.292;2023-06-04T11:51:37;8.40;;;4.70;;
73642;SDS011;61938;48.652;9.292;2023-06-04T11:54:02;10.77;;;4.65;;
73642;SDS011;61938;48.652;9.292;2023-06-04T11:56:28;10.43;;;5.25;;
73642;SDS011;61938;48.652;9.292;2023-06-04T11:58:54;8.82;;;4.45;;
73642;SDS011;61938;48.652;9.292;2023-06-04T12:01:20;11.52;;;5.18;;
73642;SDS011;61938;48.652;9.292;2023-06-04T12:03:46;11.10;;;5.15;;
73642;SDS011;61938;48.652;9.292;2023-06-04T12:06:15;12.55;;;4.00;;
73642;SDS011;61938;48.652;9.292;2023-06-04T12:11:28;16.25;;;5.30;;
73642;SDS011;61938;48.652;9.292;2023-06-04T12:13:58;11.45;;;4.63;;
73642;SDS011;61938;48.652;9.292;2023-06-04T12:16:25;9.25;;;4.65;;
73642;SDS011;61938;48.652;9.292;2023-06-04T12:18:51;7.32;;;4.43;;
73642;SDS011;61938;48.652;9.292;2023-06-04T12:21:17;7.75;;;4.43;;
73642;SDS011;61938;48.652;9.292;2023-06-04T12:23:47;9.27;;;4.32;;
73642;SDS011;61938;48.652;9.292;2023-06-04T12:26:20;10.45;;;4.63;;
73642;SDS011;61938;48.652;9.292;2023-06-04T12:29:06;10.25;;;4.72;;
73642;SDS011;61938;48.652;9.292;2023-06-04T12:31:35;9.13;;;5.20;;
73642;SDS011;61938;48.652;9.292;2023-06-04T12:34:01;8.50;;;4.88;;
73642;SDS011;61938;48.652;9.292;2023-06-04T12:36:27;8.20;;;4.47;;
73642;SDS011;61938;48.652;9.292;2023-06-04T12:38:53;6.22;;;4.68;;
73642;SDS011;61938;48.652;9.292;2023-06-04T12:41:23;9.32;;;4.47;;
73642;SDS011;61938;48.652;9.292;2023-06-04T12:43:49;12.02;;;5.03;;
73642;SDS011;61938;48.652;9.292;2023-06-04T12:46:14;8.90;;;4.97;;
73642;SDS011;61938;48.652;9.292;2023-06-04T12:48:40;9.45;;;4.43;;
73642;SDS011;61938;48.652;9.292;2023-06-04T12:51:06;7.88;;;4.70;;
73642;SDS011;61938;48.652;9.292;2023-06-04T12:53:33;9.88;;;5.07;;
73642;SDS011;61938;48.652;9.292;2023-06-04T12:55:58;5.55;;;4.15;;
73642;SDS011;61938;48.652;9.292;2023-06-04T12:58:24;6.93;;;4.75;;
73642;SDS011;61938;48.652;9.292;2023-06-04T13:00:49;9.60;;;4.80;;
73642;SDS011;61938;48.652;9.292;2023-06-04T13:03:15;6.55;;;4.72;;
73642;SDS011;61938;48.652;9.292;2023-06-04T13:05:40;10.93;;;4.18;;
73642;SDS011;61938;48.652;9.292;2023-06-04T13:08:06;9.15;;;4.85;;
73642;SDS011;61938;48.652;9.292;2023-06-04T13:10:31;9.30;;;4.75;;
73642;SDS011;61938;48.652;9.292;2023-06-04T13:12:57;12.85;;;4.70;;
73642;SDS011;61938;48.652;9.292;2023-06-04T13:15:22;7.63;;;4.68;;
73642;SDS011;61938;48.652;9.292;2023-06-04T13:17:48;7.93;;;4.80;;
73642;SDS011;61938;48.652;9.292;2023-06-04T13:20:14;7.05;;;4.47;;
73642;SDS011;61938;48.652;9.292;2023-06-04T13:22:39;8.00;;;4.80;;
73642;SDS011;61938;48.652;9.292;2023-06-04T13:25:05;9.07;;;4.82;;
73642;SDS011;61938;48.652;9.292;2023-06-04T13:27:31;10.73;;;4.60;;
73642;SDS011;61938;48.652;9.292;2023-06-04T13:29:56;10.98;;;4.55;;
73642;SDS011;61938;48.652;9.292;2023-06-04T13:32:21;5.65;;;3.83;;
73642;SDS011;61938;48.652;9.292;2023-06-04T13:34:47;7.25;;;4.32;;
73642;SDS011;61938;48.652;9.292;2023-06-04T13:37:12;10.85;;;4.05;;
73642;SDS011;61938;48.652;9.292;2023-06-04T13:39:38;8.68;;;4.18;;
73642;SDS011;61938;48.652;9.292;2023-06-04T13:42:04;11.15;;;4.95;;
73642;SDS011;61938;48.652;9.292;2023-06-04T13:44:30;6.72;;;4.40;;
73642;SDS011;61938;48.652;9.292;2023-06-04T13:46:57;7.18;;;4.70;;
73642;SDS011;61938;48.652;9.292;2023-06-04T13:49:23;10.38;;;4.45;;
73642;SDS011;61938;48.652;9.292;2023-06-04T13:51:49;10.25;;;4.93;;
73642;SDS011;61938;48.652;9.292;2023-06-04T13:54:14;9.68;;;4.28;;
73642;SDS011;61938;48.652;9.292;2023-06-04T13:56:40;10.65;;;4.30;;
73642;SDS011;61938;48.652;9.292;2023-06-04T13:59:05;9.70;;;4.70;;
73642;SDS011;61938;48.652;9.292;2023-06-04T14:01:31;6.97;;;4.05;;
73642;SDS011;61938;48.652;9.292;2023-06-04T14:03:57;5.13;;;3.30;;
73642;SDS011;61938;48.652;9.292;2023-06-04T14:06:23;7.22;;;4.22;;
73642;SDS011;61938;48.652;9.292;2023-06-04T14:08:49;5.43;;;4.00;;
73642;SDS011;61938;48.652;9.292;2023-06-04T14:11:14;8.05;;;4.45;;
73642;SDS011;61938;48.652;9.292;2023-06-04T14:13:40;7.65;;;4.03;;
73642;SDS011;61938;48.652;9.292;2023-06-04T14:16:09;10.73;;;4.25;;
73642;SDS011;61938;48.652;9.292;2023-06-04T14:18:35;6.25;;;4.38;;
73642;SDS011;61938;48.652;9.292;2023-06-04T14:21:00;7.68;;;4.40;;
73642;SDS011;61938;48.652;9.292;2023-06-04T14:23:26;9.50;;;4.30;;
73642;SDS011;61938;48.652;9.292;2023-06-04T14:25:51;9.85;;;4.57;;
73642;SDS011;61938;48.652;9.292;2023-06-04T14:28:17;11.07;;;4.20;;
73642;SDS011;61938;48.652;9.292;2023-06-04T14:30:45;7.78;;;4.40;;
73642;SDS011;61938;48.652;9.292;2023-06-04T14:33:11;11.38;;;4.32;;
73642;SDS011;61938;48.652;9.292;2023-06-04T14:35:36;8.40;;;3.80;;
73642;SDS011;61938;48.652;9.292;2023-06-04T14:38:03;6.18;;;4.47;;
73642;SDS011;61938;48.652;9.292;2023-06-04T14:40:29;7.45;;;4.38;;
73642;SDS011;61938;48.652;9.292;2023-06-04T14:42:54;6.43;;;3.88;;
73642;SDS011;61938;48.652;9.292;2023-06-04T14:45:20;6.65;;;3.97;;
73642;SDS011;61938;48.652;9.292;2023-06-04T14:47:46;25.88;;;4.47;;